createdAt,value
2022-08-26T00:02:38.744Z,86.96
2022-08-26T00:06:01.793Z,87.05
2022-08-26T00:09:25.651Z,87.18
2022-08-26T00:12:47.286Z,87.49
2022-08-26T00:16:11.755Z,87.02
2022-08-26T00:19:33.635Z,87.71
2022-08-26T00:22:55.291Z,87.99
2022-08-26T00:26:17.313Z,87.84
2022-08-26T00:29:39.923Z,87.90
2022-08-26T00:33:04.477Z,88.37
2022-08-26T00:36:29.765Z,88.32
2022-08-26T00:39:52.866Z,88.07
2022-08-26T00:43:18.334Z,88.13
2022-08-26T00:46:46.364Z,88.12
2022-08-26T00:50:15.506Z,88.24
2022-08-26T00:53:42.789Z,88.36
2022-08-26T00:57:15.940Z,88.09
2022-08-26T01:00:38.306Z,87.73
2022-08-26T01:04:01.293Z,87.55
2022-08-26T01:07:25.425Z,87.71
2022-08-26T01:10:47.407Z,87.69
2022-08-26T01:14:10.551Z,88.04
2022-08-26T01:17:33.257Z,88.10
2022-08-26T01:21:01.750Z,88.18
2022-08-26T01:24:27.573Z,88.26
2022-08-26T01:27:49.898Z,88.13
2022-08-26T01:31:16.176Z,88.23
2022-08-26T01:34:40.814Z,88.25
2022-08-26T01:38:05.083Z,88.46
2022-08-26T01:41:29.129Z,88.90
2022-08-26T01:44:54.881Z,88.99
2022-08-26T01:48:24.646Z,88.93
2022-08-26T01:51:47.928Z,89.15
2022-08-26T01:55:11.362Z,89.01
2022-08-26T01:58:39.586Z,88.95
2022-08-26T02:02:02.067Z,88.93
2022-08-26T02:05:24.766Z,88.88
2022-08-26T02:08:49.625Z,89.16
2022-08-26T02:12:15.600Z,89.05
2022-08-26T02:15:42.912Z,88.95
2022-08-26T02:19:05.904Z,89.19
2022-08-26T02:22:32.197Z,89.09
2022-08-26T02:25:57.915Z,88.97
2022-08-26T02:29:25.954Z,89.06
2022-08-26T02:32:49.462Z,89.19
2022-08-26T02:36:12.110Z,88.78
2022-08-26T02:39:37.579Z,88.92
2022-08-26T02:42:59.842Z,89.09
2022-08-26T02:46:29.735Z,88.88
2022-08-26T02:49:53.366Z,89.27
2022-08-26T02:53:16.310Z,89.17
2022-08-26T02:56:46.257Z,88.91
2022-08-26T03:00:10.999Z,88.92
2022-08-26T03:03:33.133Z,89.29
2022-08-26T03:06:56.534Z,89.33
2022-08-26T03:10:19.295Z,89.28
2022-08-26T03:13:42.126Z,89.35
2022-08-26T03:17:04.109Z,89.41
2022-08-26T03:20:26.006Z,89.59
2022-08-26T03:23:49.627Z,89.49
2022-08-26T03:27:11.714Z,90.00
2022-08-26T03:30:44.824Z,90.45
2022-08-26T03:34:07.307Z,90.26
2022-08-26T03:37:28.907Z,90.52
2022-08-26T03:40:52.326Z,90.36
2022-08-26T03:44:14.522Z,91.08
2022-08-26T03:47:36.401Z,91.16
2022-08-26T03:51:00.031Z,91.17
2022-08-26T03:54:24.934Z,91.01
2022-08-26T03:57:48.591Z,90.83
2022-08-26T04:01:10.350Z,90.87
2022-08-26T04:04:32.325Z,90.92
2022-08-26T04:07:54.854Z,90.84
2022-08-26T04:11:19.843Z,90.82
2022-08-26T04:14:43.126Z,90.92
2022-08-26T04:18:06.366Z,90.84
2022-08-26T04:21:29.448Z,90.77
2022-08-26T04:24:51.315Z,90.64
2022-08-26T04:28:14.801Z,90.50
2022-08-26T04:31:39.734Z,90.18
2022-08-26T04:35:01.928Z,89.86
2022-08-26T04:38:23.962Z,89.85
2022-08-26T04:41:46.205Z,89.97
2022-08-26T04:45:10.350Z,90.01
2022-08-26T04:48:35.298Z,90.06
2022-08-26T04:51:57.022Z,90.03
2022-08-26T04:55:19.067Z,89.83
2022-08-26T04:58:42.299Z,89.95
2022-08-26T05:02:04.446Z,90.04
2022-08-26T05:05:29.207Z,90.22
2022-08-26T05:08:51.560Z,90.22
2022-08-26T05:12:14.952Z,90.18
2022-08-26T05:15:38.463Z,90.29
2022-08-26T05:19:00.209Z,90.28
2022-08-26T05:22:23.755Z,90.49
2022-08-26T05:25:48.745Z,90.67
2022-08-26T05:29:10.739Z,90.63
2022-08-26T05:32:32.567Z,90.45
2022-08-26T05:35:54.278Z,90.42
2022-08-26T05:39:18.842Z,90.56
2022-08-26T05:42:40.907Z,90.52
2022-08-26T05:46:08.139Z,90.45
2022-08-26T05:49:30.118Z,90.58
2022-08-26T05:52:52.215Z,90.30
2022-08-26T05:56:15.819Z,90.28
2022-08-26T05:59:37.735Z,90.30
2022-08-26T06:03:01.011Z,90.45
2022-08-26T06:06:27.878Z,90.52
2022-08-26T06:09:50.692Z,90.75
2022-08-26T06:13:14.183Z,90.81
2022-08-26T06:16:38.577Z,90.67
2022-08-26T06:20:02.513Z,90.58
2022-08-26T06:23:41.815Z,90.32
2022-08-26T06:27:05.647Z,90.39
2022-08-26T06:30:28.975Z,90.55
2022-08-26T06:33:51.482Z,90.59
2022-08-26T06:37:13.416Z,90.02
2022-08-26T06:40:36.487Z,89.32
2022-08-26T06:43:58.132Z,89.67
2022-08-26T06:47:21.467Z,89.57
2022-08-26T06:50:45.333Z,89.27
2022-08-26T06:54:08.284Z,88.94
2022-08-26T06:57:32.820Z,88.36
2022-08-26T07:01:00.665Z,88.61
2022-08-26T07:04:27.831Z,88.03
2022-08-26T07:07:49.691Z,87.77
2022-08-26T07:11:14.211Z,87.34
2022-08-26T07:14:35.959Z,87.07
2022-08-26T07:17:57.570Z,87.16
2022-08-26T07:21:22.518Z,86.32
2022-08-26T07:24:45.799Z,86.28
2022-08-26T07:28:07.861Z,86.93
2022-08-26T07:31:39.660Z,86.75
2022-08-26T07:35:06.155Z,87.16
2022-08-26T07:38:30.009Z,87.10
2022-08-26T07:41:56.221Z,87.06
2022-08-26T07:45:19.508Z,86.23
2022-08-26T07:48:41.377Z,86.82
2022-08-26T07:52:08.720Z,86.49
2022-08-26T07:55:32.340Z,85.94
2022-08-26T07:58:55.119Z,86.61
2022-08-26T08:02:17.102Z,85.35
2022-08-26T08:05:41.268Z,84.93
2022-08-26T08:09:03.420Z,84.02
2022-08-26T08:12:27.790Z,83.85
2022-08-26T08:15:50.321Z,83.51
2022-08-26T08:19:12.245Z,82.26
2022-08-26T08:22:33.915Z,82.25
2022-08-26T08:26:02.435Z,82.13
2022-08-26T08:29:26.671Z,81.34
2022-08-26T08:32:48.915Z,79.82
2022-08-26T08:36:10.656Z,79.41
2022-08-26T08:39:40.366Z,78.58
2022-08-26T08:43:05.320Z,77.80
2022-08-26T08:46:30.203Z,77.32
2022-08-26T08:49:54.502Z,77.73
2022-08-26T08:53:20.410Z,75.58
2022-08-26T08:56:48.232Z,75.17
2022-08-26T09:00:17.733Z,74.51
2022-08-26T09:03:51.098Z,74.34
2022-08-26T09:07:18.544Z,74.17
2022-08-26T09:10:44.351Z,75.22
2022-08-26T09:14:06.734Z,73.75
2022-08-26T09:17:40.763Z,73.02
2022-08-26T09:21:06.669Z,72.63
2022-08-26T09:24:31.973Z,71.30
2022-08-26T09:27:55.149Z,70.94
2022-08-26T09:31:25.178Z,71.50
2022-08-26T09:34:58.083Z,71.84
2022-08-26T09:38:27.992Z,70.71
2022-08-26T09:42:04.329Z,70.74
2022-08-26T09:45:29.584Z,70.77
2022-08-26T09:48:53.232Z,70.20
2022-08-26T09:52:23.510Z,70.05
2022-08-26T09:55:50.131Z,70.87
2022-08-26T09:59:12.701Z,69.05
2022-08-26T10:02:47.452Z,69.07
2022-08-26T10:06:24.111Z,67.70
2022-08-26T10:09:48.146Z,67.85
2022-08-26T10:13:20.459Z,67.59
2022-08-26T10:16:52.724Z,68.46
2022-08-26T10:20:23.533Z,67.98
2022-08-26T10:23:52.104Z,66.77
2022-08-26T10:27:25.558Z,67.02
2022-08-26T10:30:54.886Z,65.69
2022-08-26T10:34:19.207Z,65.53
2022-08-26T10:37:48.040Z,65.94
2022-08-26T10:41:15.894Z,64.27
2022-08-26T10:44:43.920Z,64.77
2022-08-26T10:48:11.096Z,65.24
2022-08-26T10:51:38.582Z,65.01
2022-08-26T10:55:07.009Z,64.88
2022-08-26T10:58:44.532Z,65.18
2022-08-26T11:02:13.322Z,65.09
2022-08-26T11:05:37.346Z,64.99
2022-08-26T11:09:02.262Z,64.76
2022-08-26T11:13:04.651Z,64.85
2022-08-26T11:16:43.697Z,64.72
2022-08-26T11:20:09.169Z,64.18
2022-08-26T11:23:50.831Z,64.77
2022-08-26T11:27:54.248Z,64.38
2022-08-26T11:31:48.908Z,64.32
2022-08-26T11:35:13.048Z,64.34
2022-08-26T11:38:35.174Z,63.85
2022-08-26T11:42:04.225Z,63.93
2022-08-26T11:45:32.204Z,63.79
2022-08-26T11:49:02.507Z,63.48
2022-08-26T11:52:26.282Z,64.40
2022-08-26T11:55:48.738Z,64.52
2022-08-26T11:59:16.589Z,65.71
2022-08-26T12:02:40.358Z,64.66
2022-08-26T12:06:03.093Z,64.02
2022-08-26T12:09:26.529Z,64.38
2022-08-26T12:12:56.654Z,64.29
2022-08-26T12:16:25.565Z,64.30
2022-08-26T12:19:47.183Z,64.33
2022-08-26T12:23:09.205Z,64.10
2022-08-26T12:26:33.333Z,64.31
2022-08-26T12:30:08.805Z,64.36
2022-08-26T12:33:37.058Z,65.21
2022-08-26T12:40:32.982Z,64.77
2022-08-26T12:43:56.737Z,64.64
2022-08-26T12:47:30.897Z,65.02
2022-08-26T12:51:08.610Z,64.71
2022-08-26T12:54:44.499Z,65.05
2022-08-26T12:58:29.615Z,65.70
2022-08-26T13:01:52.310Z,65.40
2022-08-26T13:05:21.811Z,65.06
2022-08-26T13:08:46.484Z,66.28
2022-08-26T13:12:08.409Z,66.33
2022-08-26T13:15:30.134Z,65.74
2022-08-26T13:18:56.891Z,69.60
2022-08-26T13:22:24.152Z,62.81
2022-08-26T13:25:47.383Z,65.18
2022-08-26T13:29:10.607Z,67.47
2022-08-26T13:32:32.771Z,68.50
2022-08-26T13:35:54.849Z,70.28
2022-08-26T13:39:17.417Z,71.98
2022-08-26T13:42:42.994Z,73.97
2022-08-26T13:46:11.513Z,74.48
2022-08-26T13:49:34.090Z,75.06
2022-08-26T13:52:55.910Z,74.91
2022-08-26T13:56:18.782Z,75.04
2022-08-26T13:59:42.140Z,74.89
2022-08-26T14:03:04.083Z,75.13
2022-08-26T14:06:26.202Z,75.24
2022-08-26T14:09:47.966Z,75.01
2022-08-26T14:13:09.908Z,75.95
2022-08-26T14:16:37.237Z,76.24
2022-08-26T14:20:22.675Z,76.33
2022-08-26T14:23:45.230Z,75.82
2022-08-26T14:27:07.298Z,75.81
2022-08-26T14:30:29.199Z,75.57
2022-08-26T14:33:52.373Z,75.24
2022-08-26T14:37:15.359Z,75.68
2022-08-26T14:40:40.146Z,75.67
2022-08-26T14:44:04.229Z,76.12
2022-08-26T14:47:26.279Z,76.74
2022-08-26T14:50:49.498Z,75.54
2022-08-26T14:54:16.273Z,75.70
2022-08-26T14:57:37.722Z,76.03
2022-08-26T15:00:59.846Z,76.10
2022-08-26T15:04:26.252Z,74.76
2022-08-26T15:07:49.329Z,74.49
2022-08-26T15:11:11.121Z,74.38
2022-08-26T15:14:33.326Z,74.53
2022-08-26T15:17:54.978Z,74.45
2022-08-26T15:21:16.954Z,74.51
2022-08-26T15:24:40.434Z,75.04
2022-08-26T15:28:02.311Z,74.84
2022-08-26T15:31:31.006Z,74.45
2022-08-26T15:34:53.148Z,74.29
2022-08-26T15:38:15.022Z,74.52
2022-08-26T15:41:38.678Z,74.15
2022-08-26T15:45:00.454Z,74.28
2022-08-26T15:48:24.411Z,74.37
2022-08-26T15:51:47.822Z,74.23
2022-08-26T15:55:10.691Z,74.07
2022-08-26T15:58:34.034Z,74.01
2022-08-26T16:01:57.991Z,74.49
2022-08-26T16:05:19.790Z,74.33
2022-08-26T16:08:41.666Z,74.60
2022-08-26T16:12:03.452Z,75.05
2022-08-26T16:15:29.051Z,74.80
2022-08-26T16:18:51.078Z,75.33
2022-08-26T16:22:13.078Z,75.12
2022-08-26T16:25:35.306Z,75.33
2022-08-26T16:28:57.433Z,75.48
2022-08-26T16:32:20.477Z,75.38
2022-08-26T16:35:43.919Z,75.61
2022-08-26T16:39:07.517Z,75.45
2022-08-26T16:42:29.231Z,75.00
2022-08-26T16:45:51.139Z,75.47
2022-08-26T16:49:14.158Z,76.60
2022-08-26T16:52:37.146Z,75.96
2022-08-26T16:55:59.198Z,76.17
2022-08-26T16:59:20.930Z,76.12
2022-08-26T17:02:42.781Z,76.15
2022-08-26T17:06:06.315Z,76.72
2022-08-26T17:09:28.170Z,76.04
2022-08-26T17:12:50.313Z,76.45
2022-08-26T17:16:13.582Z,77.75
2022-08-26T17:19:40.737Z,77.79
2022-08-26T17:23:10.513Z,78.29
2022-08-26T17:26:32.663Z,78.65
2022-08-26T17:29:54.686Z,78.88
2022-08-26T17:33:17.101Z,79.77
2022-08-26T17:36:43.311Z,78.36
2022-08-26T17:40:09.713Z,80.50
2022-08-26T17:43:31.377Z,82.03
2022-08-26T17:46:53.756Z,82.48
2022-08-26T17:50:18.331Z,82.31
2022-08-26T17:53:41.209Z,82.68
2022-08-26T17:57:10.677Z,82.31
2022-08-26T18:00:32.527Z,83.08
2022-08-26T18:04:00.184Z,82.89
2022-08-26T18:07:22.823Z,81.21
2022-08-26T18:10:45.487Z,83.66
2022-08-26T18:14:08.710Z,84.35
2022-08-26T18:17:30.722Z,84.49
2022-08-26T18:20:52.599Z,84.29
2022-08-26T18:24:24.495Z,84.55
2022-08-26T18:27:46.529Z,84.85
2022-08-26T18:31:12.491Z,84.49
2022-08-26T18:34:35.629Z,84.45
2022-08-26T18:37:58.236Z,84.38
2022-08-26T18:41:25.960Z,84.15
2022-08-26T18:44:51.128Z,83.29
2022-08-26T18:48:14.646Z,83.58
2022-08-26T18:51:37.930Z,84.06
2022-08-26T18:55:00.633Z,84.42
2022-08-26T18:58:22.623Z,84.25
2022-08-26T19:01:45.372Z,84.50
2022-08-26T19:05:10.235Z,84.83
2022-08-26T19:08:32.357Z,85.39
2022-08-26T19:11:54.271Z,86.06
2022-08-26T19:15:15.936Z,86.23
2022-08-26T19:18:38.138Z,86.78
2022-08-26T19:22:01.602Z,86.67
2022-08-26T19:25:23.183Z,86.82
2022-08-26T19:28:45.232Z,86.86
2022-08-26T19:32:07.074Z,87.53
2022-08-26T19:35:28.873Z,87.98
2022-08-26T19:38:55.267Z,87.98
2022-08-26T19:42:17.688Z,87.25
2022-08-26T19:45:39.833Z,87.54
2022-08-26T19:49:01.747Z,87.60
2022-08-26T19:52:29.735Z,87.88
2022-08-26T19:55:53.085Z,85.67
2022-08-26T19:59:15.222Z,86.90
2022-08-26T20:02:37.430Z,86.64
2022-08-26T20:05:59.751Z,87.12
2022-08-26T20:09:21.732Z,86.92
2022-08-26T20:12:45.581Z,86.93
2022-08-26T20:16:08.045Z,87.55
2022-08-26T20:19:47.258Z,87.67
2022-08-26T20:23:09.362Z,86.81
2022-08-26T20:26:35.958Z,86.84
2022-08-26T20:29:59.095Z,87.29
2022-08-26T20:33:21.193Z,87.71
2022-08-26T20:36:43.910Z,87.70
2022-08-26T20:40:08.424Z,87.68
2022-08-26T20:43:30.506Z,87.76
2022-08-26T20:46:53.995Z,87.95
2022-08-26T20:50:15.586Z,88.52
2022-08-26T20:53:37.577Z,88.18
2022-08-26T20:57:00.103Z,88.65
2022-08-26T21:00:22.986Z,88.77
2022-08-26T21:03:51.881Z,89.08
2022-08-26T21:07:13.567Z,88.84
2022-08-26T21:10:35.878Z,89.29
2022-08-26T21:14:15.956Z,89.04
2022-08-26T21:17:38.873Z,89.35
2022-08-26T21:21:05.113Z,89.26
2022-08-26T21:24:27.116Z,89.32
2022-08-26T21:27:48.912Z,88.85
2022-08-26T21:31:13.462Z,89.16
2022-08-26T21:34:35.380Z,89.38
2022-08-26T21:37:58.337Z,89.21
2022-08-26T21:41:22.132Z,89.14
2022-08-26T21:44:45.142Z,89.04
2022-08-26T21:48:14.318Z,88.37
2022-08-26T21:51:38.575Z,88.41
2022-08-26T21:55:03.398Z,88.86
2022-08-26T21:58:30.533Z,88.53
2022-08-26T22:01:52.455Z,88.09
2022-08-26T22:05:14.617Z,88.29
2022-08-26T22:08:36.742Z,88.34
2022-08-26T22:12:00.551Z,88.66
2022-08-26T22:15:25.798Z,88.98
2022-08-26T22:18:47.392Z,89.32
2022-08-26T22:22:09.707Z,89.21
2022-08-26T22:25:31.442Z,89.76
2022-08-26T22:28:58.507Z,90.13
2022-08-26T22:32:21.289Z,90.38
2022-08-26T22:35:45.649Z,90.33
2022-08-26T22:39:07.494Z,90.48
2022-08-26T22:42:32.199Z,90.62
2022-08-26T22:45:56.870Z,90.63
2022-08-26T22:49:19.576Z,90.69
2022-08-26T22:52:41.992Z,90.93
2022-08-26T22:56:03.946Z,90.50
2022-08-26T22:59:26.209Z,90.65
2022-08-26T23:02:49.515Z,90.65
2022-08-26T23:06:11.852Z,90.72
2022-08-26T23:09:33.461Z,91.12
2022-08-26T23:12:55.354Z,91.22
2022-08-26T23:16:17.064Z,91.46
2022-08-26T23:19:40.229Z,91.40
2022-08-26T23:23:02.478Z,91.29
2022-08-26T23:26:24.906Z,91.59
2022-08-26T23:29:46.994Z,91.47
2022-08-26T23:33:08.833Z,91.67
2022-08-26T23:36:31.169Z,92.01
2022-08-26T23:39:56.928Z,92.13
2022-08-26T23:43:18.617Z,92.23
2022-08-26T23:46:40.581Z,92.62
2022-08-26T23:50:02.611Z,92.40
2022-08-26T23:53:24.714Z,92.62
2022-08-26T23:56:46.519Z,93.11
